createdAt,value
2018-09-24T00:00:01.154Z,0.20
2018-09-24T00:02:29.769Z,0.20
2018-09-24T00:04:58.247Z,0.30
2018-09-24T00:07:26.727Z,0.30
2018-09-24T00:09:55.157Z,0.30
2018-09-24T00:12:23.671Z,0.30
2018-09-24T00:14:52.134Z,0.50
2018-09-24T00:17:20.593Z,0.30
2018-09-24T00:19:49.338Z,0.30
2018-09-24T00:22:17.812Z,0.20
2018-09-24T00:24:46.232Z,0.33
2018-09-24T00:27:14.899Z,0.30
2018-09-24T00:29:43.344Z,0.30
2018-09-24T00:32:11.959Z,0.40
2018-09-24T00:34:40.449Z,0.20
2018-09-24T00:37:08.922Z,0.20
2018-09-24T00:39:37.379Z,0.40
2018-09-24T00:42:05.980Z,0.43
2018-09-24T00:44:34.394Z,0.40
2018-09-24T00:47:03.030Z,0.27
2018-09-24T00:49:31.496Z,0.30
2018-09-24T00:51:59.904Z,0.40
2018-09-24T00:54:28.458Z,0.40
2018-09-24T00:56:56.896Z,0.43
2018-09-24T00:59:25.339Z,0.50
2018-09-24T01:01:53.779Z,0.63
2018-09-24T01:04:22.481Z,0.40
2018-09-24T01:06:50.890Z,0.50
2018-09-24T01:09:19.512Z,0.50
2018-09-24T01:11:47.968Z,0.23
2018-09-24T01:14:16.398Z,0.67
2018-09-24T01:16:44.818Z,0.50
2018-09-24T01:19:13.280Z,0.40
2018-09-24T01:21:41.704Z,0.43
2018-09-24T01:24:10.220Z,0.43
2018-09-24T01:26:38.639Z,0.50
2018-09-24T01:29:07.419Z,0.43
2018-09-24T01:31:35.970Z,0.60
2018-09-24T01:34:04.449Z,0.67
2018-09-24T01:36:32.905Z,0.43
2018-09-24T01:39:01.434Z,0.30
2018-09-24T01:41:30.182Z,0.40
2018-09-24T01:43:58.674Z,0.30
2018-09-24T01:46:27.080Z,0.40
2018-09-24T01:48:55.547Z,0.40
2018-09-24T01:51:31.557Z,0.60
2018-09-24T01:54:00.071Z,0.40
2018-09-24T01:56:28.528Z,0.40
2018-09-24T01:58:56.963Z,0.50
2018-09-24T02:01:25.427Z,0.30
2018-09-24T02:03:53.867Z,0.40
2018-09-24T02:06:22.346Z,0.50
2018-09-24T02:08:50.792Z,0.40
2018-09-24T02:11:19.213Z,0.40
2018-09-24T02:13:50.494Z,0.50
2018-09-24T02:16:19.706Z,0.40
2018-09-24T02:18:48.784Z,0.40
2018-09-24T02:21:17.742Z,0.70
2018-09-24T02:23:46.213Z,0.53
2018-09-24T02:26:14.639Z,0.50
2018-09-24T02:28:43.103Z,0.40
2018-09-24T02:31:11.547Z,0.47
2018-09-24T02:33:40.004Z,0.40
2018-09-24T02:36:08.492Z,0.40
2018-09-24T02:38:38.973Z,0.40
2018-09-24T02:41:07.487Z,0.40
2018-09-24T02:43:35.885Z,0.30
2018-09-24T02:46:04.359Z,0.40
2018-09-24T02:48:33.034Z,0.40
2018-09-24T02:51:01.531Z,0.43
2018-09-24T02:53:38.175Z,0.40
2018-09-24T02:56:06.887Z,0.50
2018-09-24T02:58:35.438Z,0.27
2018-09-24T03:01:03.984Z,0.40
2018-09-24T03:03:32.455Z,0.40
2018-09-24T03:06:00.900Z,0.50
2018-09-24T03:08:29.330Z,0.47
2018-09-24T03:11:03.364Z,0.30
2018-09-24T03:13:32.085Z,0.47
2018-09-24T03:16:00.513Z,0.40
2018-09-24T03:18:28.962Z,0.53
2018-09-24T03:20:57.607Z,0.30
2018-09-24T03:23:26.042Z,0.30
2018-09-24T03:25:54.458Z,0.40
2018-09-24T03:28:23.014Z,0.30
2018-09-24T03:30:51.662Z,0.30
2018-09-24T03:33:20.090Z,0.30
2018-09-24T03:35:48.555Z,0.30
2018-09-24T03:38:16.995Z,0.40
2018-09-24T03:40:45.481Z,0.30
2018-09-24T03:43:13.908Z,0.30
2018-09-24T03:45:42.379Z,0.30
2018-09-24T03:48:10.785Z,0.50
2018-09-24T03:50:39.234Z,0.30
2018-09-24T03:53:07.646Z,0.43
2018-09-24T03:55:36.088Z,0.20
2018-09-24T03:58:04.761Z,0.30
2018-09-24T04:00:33.282Z,0.30
2018-09-24T04:03:01.674Z,0.40
2018-09-24T04:05:35.646Z,0.27
2018-09-24T04:08:09.465Z,0.40
2018-09-24T04:10:43.227Z,0.30
2018-09-24T04:13:17.194Z,0.40
2018-09-24T04:15:50.973Z,0.40
2018-09-24T04:18:24.863Z,0.37
2018-09-24T04:20:58.627Z,0.30
2018-09-24T04:23:32.587Z,0.23
2018-09-24T04:26:06.385Z,0.40
2018-09-24T04:28:40.506Z,0.30
2018-09-24T04:31:14.276Z,0.43
2018-09-24T04:33:47.935Z,0.40
2018-09-24T04:36:21.737Z,0.60
2018-09-24T04:38:55.482Z,0.40
2018-09-24T04:41:29.291Z,0.60
2018-09-24T04:44:03.177Z,0.43
2018-09-24T04:46:36.898Z,0.70
2018-09-24T04:49:10.916Z,0.80
2018-09-24T04:51:51.590Z,0.50
2018-09-24T04:54:25.479Z,1.10
2018-09-24T04:56:59.388Z,1.00
2018-09-24T04:59:33.182Z,0.60
2018-09-24T05:02:06.976Z,0.80
2018-09-24T05:04:40.723Z,0.80
2018-09-24T05:07:14.585Z,1.10
2018-09-24T05:09:48.526Z,0.60
2018-09-24T05:12:22.420Z,0.70
2018-09-24T05:14:56.428Z,1.10
2018-09-24T05:17:30.553Z,1.00
2018-09-24T05:20:04.652Z,1.07
2018-09-24T05:22:38.625Z,1.17
2018-09-24T05:25:12.431Z,1.20
2018-09-24T05:27:46.157Z,1.43
2018-09-24T05:30:19.958Z,1.77
2018-09-24T05:32:53.755Z,1.37
2018-09-24T05:35:27.598Z,1.17
2018-09-24T05:38:01.364Z,1.20
2018-09-24T05:40:35.335Z,3.40
2018-09-24T05:43:09.127Z,1.57
2018-09-24T05:45:43.137Z,1.63
2018-09-24T05:48:16.912Z,1.13
2018-09-24T05:50:50.771Z,1.40
2018-09-24T05:53:24.587Z,1.13
2018-09-24T05:55:59.573Z,1.17
2018-09-24T05:58:33.327Z,1.20
2018-09-24T06:01:07.248Z,1.27
2018-09-24T06:03:41.073Z,1.00
2018-09-24T06:06:14.865Z,1.60
2018-09-24T06:08:48.728Z,2.30
2018-09-24T06:11:22.553Z,1.40
2018-09-24T06:13:56.415Z,1.30
2018-09-24T06:16:30.182Z,1.47
2018-09-24T06:19:04.148Z,1.90
2018-09-24T06:21:38.171Z,1.30
2018-09-24T06:24:12.213Z,1.10
2018-09-24T06:26:46.254Z,1.23
2018-09-24T06:29:20.020Z,1.20
2018-09-24T06:31:54.050Z,1.17
2018-09-24T06:34:27.973Z,1.23
2018-09-24T06:37:01.735Z,1.33
2018-09-24T06:39:35.481Z,1.60
2018-09-24T06:42:09.166Z,2.17
2018-09-24T06:44:42.951Z,1.47
2018-09-24T06:47:16.689Z,1.83
2018-09-24T06:49:50.478Z,2.13
2018-09-24T06:52:24.278Z,1.70
2018-09-24T06:54:58.305Z,1.40
2018-09-24T06:57:32.098Z,1.40
2018-09-24T07:00:05.880Z,1.47
2018-09-24T07:02:39.668Z,1.30
2018-09-24T07:05:13.513Z,1.17
2018-09-24T07:07:47.431Z,1.73
2018-09-24T07:10:21.237Z,1.10
2018-09-24T07:12:54.977Z,1.33
2018-09-24T07:15:28.687Z,1.13
2018-09-24T07:18:02.429Z,2.10
2018-09-24T07:20:36.476Z,1.40
2018-09-24T07:23:10.158Z,0.97
2018-09-24T07:25:44.231Z,1.37
2018-09-24T07:28:18.207Z,1.60
2018-09-24T07:30:52.135Z,1.37
2018-09-24T07:33:25.849Z,1.37
2018-09-24T07:35:59.629Z,1.60
2018-09-24T07:38:33.363Z,1.53
2018-09-24T07:41:07.142Z,1.63
2018-09-24T07:43:40.958Z,1.30
2018-09-24T07:46:14.822Z,1.20
2018-09-24T07:48:48.815Z,1.43
2018-09-24T07:51:22.794Z,1.00
2018-09-24T07:53:56.583Z,1.23
2018-09-24T07:56:30.569Z,1.33
2018-09-24T07:59:04.401Z,0.83
2018-09-24T08:01:38.362Z,1.10
2018-09-24T08:04:12.395Z,0.90
2018-09-24T08:06:46.254Z,1.07
2018-09-24T08:09:20.183Z,1.00
2018-09-24T08:11:54.054Z,1.47
2018-09-24T08:14:28.045Z,0.73
2018-09-24T08:17:01.884Z,1.20
2018-09-24T08:19:35.829Z,1.40
2018-09-24T08:22:09.696Z,0.97
2018-09-24T08:24:43.407Z,1.30
2018-09-24T08:27:17.224Z,1.73
2018-09-24T08:29:51.123Z,1.33
2018-09-24T08:32:24.848Z,1.20
2018-09-24T08:34:58.565Z,1.23
2018-09-24T08:37:32.298Z,1.27
2018-09-24T08:40:06.119Z,1.40
2018-09-24T08:42:40.262Z,1.13
2018-09-24T08:45:14.155Z,1.77
2018-09-24T08:47:47.911Z,1.10
2018-09-24T08:50:21.520Z,1.40
2018-09-24T08:52:55.348Z,1.63
2018-09-24T08:55:29.107Z,1.70
2018-09-24T08:58:02.845Z,1.33
2018-09-24T09:00:36.762Z,1.80
2018-09-24T09:03:10.455Z,1.27
2018-09-24T09:05:44.264Z,1.33
2018-09-24T09:08:18.232Z,1.60
2018-09-24T09:10:52.337Z,1.50
2018-09-24T09:13:26.144Z,1.00
2018-09-24T09:16:00.120Z,1.63
2018-09-24T09:18:34.103Z,1.50
2018-09-24T09:21:07.985Z,1.20
2018-09-24T09:23:41.876Z,0.70
2018-09-24T09:26:15.712Z,1.07
2018-09-24T09:28:49.507Z,1.80
2018-09-24T09:31:23.186Z,1.43
2018-09-24T09:33:57.061Z,1.50
2018-09-24T09:36:30.807Z,1.50
2018-09-24T09:39:04.753Z,0.90
2018-09-24T09:41:38.854Z,1.60
2018-09-24T09:44:12.665Z,0.93
2018-09-24T09:46:46.473Z,1.10
2018-09-24T09:49:20.531Z,1.47
2018-09-24T09:51:54.401Z,1.47
2018-09-24T09:54:28.205Z,0.93
2018-09-24T09:57:02.106Z,1.23
2018-09-24T09:59:35.891Z,1.40
2018-09-24T10:02:09.616Z,1.33
2018-09-24T10:04:43.479Z,1.37
2018-09-24T10:07:17.489Z,1.17
2018-09-24T10:09:51.351Z,1.00
2018-09-24T10:12:25.094Z,1.33
2018-09-24T10:14:58.798Z,1.20
2018-09-24T10:17:32.532Z,1.20
2018-09-24T10:20:06.506Z,1.33
2018-09-24T10:22:40.345Z,1.00
2018-09-24T10:25:14.294Z,1.10
2018-09-24T10:27:48.182Z,1.63
2018-09-24T10:30:22.103Z,0.80
2018-09-24T10:32:55.943Z,0.80
2018-09-24T10:35:29.887Z,0.90
2018-09-24T10:38:03.831Z,1.20
2018-09-24T10:40:37.696Z,0.97
2018-09-24T10:43:12.149Z,0.73
2018-09-24T10:45:45.982Z,1.53
2018-09-24T10:48:19.753Z,0.77
2018-09-24T10:50:54.602Z,1.20
2018-09-24T10:53:28.670Z,1.87
2018-09-24T10:56:02.699Z,1.30
2018-09-24T10:58:36.579Z,1.30
2018-09-24T11:01:10.414Z,1.03
2018-09-24T11:03:44.275Z,1.43
2018-09-24T11:06:17.973Z,1.00
2018-09-24T11:08:51.772Z,0.97
2018-09-24T11:11:25.602Z,1.13
2018-09-24T11:14:02.767Z,0.90
2018-09-24T11:16:43.598Z,1.10
2018-09-24T11:19:22.094Z,1.30
2018-09-24T11:22:00.306Z,1.00
2018-09-24T11:24:39.632Z,1.07
2018-09-24T11:30:07.545Z,1.10
2018-09-24T11:32:48.062Z,0.93
2018-09-24T11:35:26.735Z,1.60
2018-09-24T11:38:08.032Z,1.00
2018-09-24T11:40:55.414Z,1.00
2018-09-24T11:43:29.343Z,0.80
2018-09-24T11:46:02.924Z,1.57
2018-09-24T11:48:36.751Z,1.00
2018-09-24T11:51:10.462Z,1.10
2018-09-24T11:53:44.162Z,1.20
2018-09-24T11:56:18.180Z,1.70
2018-09-24T11:58:52.125Z,1.13
2018-09-24T12:01:25.787Z,1.07
2018-09-24T12:03:59.634Z,0.70
2018-09-24T12:06:33.299Z,1.10
2018-09-24T12:09:07.227Z,1.20
2018-09-24T12:11:40.942Z,1.60
2018-09-24T12:14:14.793Z,0.90
2018-09-24T12:16:48.504Z,0.80
2018-09-24T12:19:22.231Z,1.40
2018-09-24T12:21:55.943Z,1.60
2018-09-24T12:24:29.767Z,1.40
2018-09-24T12:27:03.707Z,1.20
2018-09-24T12:29:37.527Z,1.10
2018-09-24T12:32:11.478Z,1.30
2018-09-24T12:34:45.378Z,1.00
2018-09-24T12:37:19.229Z,1.00
2018-09-24T12:39:53.027Z,1.20
2018-09-24T12:42:26.878Z,1.10
2018-09-24T12:45:00.656Z,0.93
2018-09-24T12:47:34.407Z,1.13
2018-09-24T12:50:08.218Z,1.00
2018-09-24T12:52:41.982Z,1.50
2018-09-24T12:55:15.774Z,1.60
2018-09-24T12:57:49.734Z,1.07
2018-09-24T13:00:23.596Z,1.40
2018-09-24T13:02:57.311Z,1.20
2018-09-24T13:05:30.947Z,1.30
2018-09-24T13:08:04.654Z,1.20
2018-09-24T13:10:38.339Z,1.30
2018-09-24T13:13:12.213Z,1.00
2018-09-24T13:15:45.843Z,2.00
2018-09-24T13:18:19.551Z,0.80
2018-09-24T13:20:53.254Z,1.20
2018-09-24T13:23:26.930Z,1.00
2018-09-24T13:26:00.682Z,0.97
2018-09-24T13:28:34.391Z,0.90
2018-09-24T13:31:08.160Z,1.37
2018-09-24T13:33:41.858Z,1.10
2018-09-24T13:36:15.556Z,0.97
2018-09-24T13:38:49.213Z,1.17
2018-09-24T13:41:22.921Z,1.10
2018-09-24T13:43:56.600Z,0.83
2018-09-24T13:46:30.375Z,1.07
2018-09-24T13:49:04.060Z,1.27
2018-09-24T13:51:37.771Z,0.90
2018-09-24T13:54:11.868Z,0.90
2018-09-24T13:56:45.598Z,1.10
2018-09-24T13:59:19.392Z,0.80
2018-09-24T14:01:53.114Z,0.90
2018-09-24T14:04:26.981Z,1.77
2018-09-24T14:07:00.823Z,1.10
2018-09-24T14:09:34.477Z,0.80
2018-09-24T14:12:08.894Z,1.00
2018-09-24T14:14:43.228Z,0.82
2018-09-24T14:17:17.475Z,1.00
2018-09-24T14:19:51.748Z,0.65
2018-09-24T14:22:26.123Z,0.98
2018-09-24T14:25:00.399Z,0.90
2018-09-24T14:27:34.640Z,1.02
2018-09-24T14:30:08.888Z,1.20
2018-09-24T14:32:43.187Z,0.75
2018-09-24T14:35:17.295Z,1.20
2018-09-24T14:37:51.543Z,0.80
2018-09-24T14:40:25.887Z,0.75
2018-09-24T14:43:00.204Z,0.80
2018-09-24T14:45:34.447Z,0.68
2018-09-24T14:48:08.734Z,0.80
2018-09-24T14:50:43.066Z,0.72
2018-09-24T14:53:17.357Z,1.10
2018-09-24T14:55:51.642Z,0.70
2018-09-24T14:58:25.899Z,0.85
2018-09-24T15:01:00.226Z,0.80
2018-09-24T15:03:34.454Z,0.57
2018-09-24T15:06:08.839Z,1.02
2018-09-24T15:08:43.095Z,1.00
2018-09-24T15:11:17.468Z,0.75
2018-09-24T15:13:51.892Z,0.90
2018-09-24T15:16:26.154Z,0.90
2018-09-24T15:19:00.438Z,0.78
2018-09-24T15:21:34.676Z,0.80
2018-09-24T15:24:09.086Z,1.10
2018-09-24T15:26:43.382Z,1.70
2018-09-24T15:29:17.627Z,0.80
2018-09-24T15:31:51.300Z,1.10
2018-09-24T15:34:25.055Z,0.93
2018-09-24T15:36:58.739Z,0.77
2018-09-24T15:39:32.589Z,0.90
2018-09-24T15:42:06.158Z,0.93
2018-09-24T15:44:39.864Z,1.00
2018-09-24T15:47:13.543Z,1.00
2018-09-24T15:49:47.259Z,1.30
2018-09-24T15:52:21.194Z,1.03
2018-09-24T15:54:55.083Z,1.13
2018-09-24T15:57:28.917Z,0.77
2018-09-24T16:00:02.791Z,0.93
2018-09-24T16:02:36.508Z,1.40
2018-09-24T16:05:10.638Z,1.50
2018-09-24T16:07:44.310Z,1.50
2018-09-24T16:10:18.023Z,1.20
2018-09-24T16:12:51.715Z,1.30
2018-09-24T16:15:25.400Z,1.17
2018-09-24T16:17:59.202Z,1.17
2018-09-24T16:20:32.988Z,1.40
2018-09-24T16:23:06.806Z,0.90
2018-09-24T16:25:40.370Z,1.17
2018-09-24T16:28:14.181Z,3.23
2018-09-24T16:30:47.898Z,1.67
2018-09-24T16:33:21.595Z,1.30
2018-09-24T16:35:55.311Z,1.07
2018-09-24T16:38:29.036Z,0.90
2018-09-24T16:41:02.874Z,1.20
2018-09-24T16:43:36.715Z,1.47
2018-09-24T16:46:10.390Z,3.70
2018-09-24T16:48:44.130Z,1.40
2018-09-24T16:51:17.995Z,1.70
2018-09-24T16:53:51.712Z,1.50
2018-09-24T16:56:25.634Z,0.83
2018-09-24T16:58:59.452Z,1.23
2018-09-24T17:01:33.191Z,1.60
2018-09-24T17:04:07.056Z,1.27
2018-09-24T17:06:40.906Z,1.43
2018-09-24T17:09:14.951Z,1.33
2018-09-24T17:11:48.710Z,1.27
2018-09-24T17:14:31.083Z,1.65
2018-09-24T17:17:04.804Z,1.50
2018-09-24T17:19:38.621Z,1.60
2018-09-24T17:22:12.359Z,1.20
2018-09-24T17:24:46.096Z,1.00
2018-09-24T17:27:19.792Z,1.37
2018-09-24T17:29:53.655Z,1.63
2018-09-24T17:32:27.444Z,1.53
2018-09-24T17:35:01.176Z,2.00
2018-09-24T17:37:35.232Z,1.50
2018-09-24T17:40:09.212Z,1.60
2018-09-24T17:42:42.932Z,1.37
2018-09-24T17:45:16.709Z,1.90
2018-09-24T17:47:50.458Z,1.30
2018-09-24T17:50:24.288Z,1.83
2018-09-24T17:52:58.174Z,1.87
2018-09-24T17:55:32.032Z,2.00
2018-09-24T17:58:05.964Z,2.33
2018-09-24T18:00:39.723Z,1.47
2018-09-24T18:03:13.439Z,1.47
2018-09-24T18:05:47.295Z,2.03
2018-09-24T18:08:21.319Z,1.87
2018-09-24T18:10:55.254Z,2.50
2018-09-24T18:13:29.300Z,1.80
2018-09-24T18:16:03.014Z,4.50
2018-09-24T18:18:36.681Z,2.20
2018-09-24T18:21:10.641Z,4.90
2018-09-24T18:23:44.585Z,3.30
2018-09-24T18:26:18.363Z,2.07
2018-09-24T18:28:52.264Z,1.70
2018-09-24T18:31:25.987Z,1.57
2018-09-24T18:33:59.949Z,1.90
2018-09-24T18:36:33.932Z,1.87
2018-09-24T18:39:07.778Z,2.50
2018-09-24T18:41:41.729Z,2.07
2018-09-24T18:44:15.802Z,2.37
2018-09-24T18:46:50.243Z,1.63
2018-09-24T18:49:24.308Z,1.60
2018-09-24T18:51:58.600Z,1.97
2018-09-24T18:54:32.738Z,2.43
2018-09-24T18:57:06.747Z,1.73
2018-09-24T18:59:40.943Z,1.63
2018-09-24T19:02:14.854Z,1.80
2018-09-24T19:04:48.593Z,2.00
2018-09-24T19:07:22.455Z,1.80
2018-09-24T19:09:56.374Z,2.37
2018-09-24T19:12:30.322Z,2.33
2018-09-24T19:15:04.258Z,1.60
2018-09-24T19:17:38.233Z,2.10
2018-09-24T19:20:12.103Z,1.57
2018-09-24T19:22:45.813Z,1.57
2018-09-24T19:25:19.712Z,1.57
2018-09-24T19:27:53.559Z,1.60
2018-09-24T19:30:27.500Z,1.47
2018-09-24T19:33:01.541Z,1.80
2018-09-24T19:35:35.579Z,1.70
2018-09-24T19:38:09.395Z,1.47
2018-09-24T19:40:43.247Z,1.77
2018-09-24T19:43:17.273Z,2.57
2018-09-24T19:45:51.323Z,2.73
2018-09-24T19:48:25.353Z,2.50
2018-09-24T19:50:59.462Z,2.30
2018-09-24T19:53:33.407Z,2.10
2018-09-24T19:56:07.591Z,2.70
2018-09-24T19:58:41.642Z,2.43
2018-09-24T20:01:15.676Z,2.20
2018-09-24T20:03:49.703Z,2.27
2018-09-24T20:06:30.433Z,2.00
2018-09-24T20:09:04.510Z,1.70
2018-09-24T20:11:38.432Z,1.93
2018-09-24T20:14:12.188Z,1.80
2018-09-24T20:16:46.191Z,2.23
2018-09-24T20:19:20.373Z,1.63
2018-09-24T20:21:54.470Z,2.03
2018-09-24T20:24:28.672Z,1.70
2018-09-24T20:27:02.425Z,2.00
2018-09-24T20:29:36.153Z,1.90
2018-09-24T20:32:09.884Z,2.20
2018-09-24T20:34:43.670Z,1.97
2018-09-24T20:37:17.595Z,1.63
2018-09-24T20:39:51.372Z,1.47
2018-09-24T20:42:25.078Z,1.40
2018-09-24T20:44:58.943Z,2.80
2018-09-24T20:47:32.650Z,1.87
2018-09-24T20:50:06.238Z,2.20
2018-09-24T20:52:40.170Z,1.80
2018-09-24T20:55:13.865Z,2.17
2018-09-24T20:57:47.650Z,1.80
2018-09-24T21:00:21.391Z,1.67
2018-09-24T21:02:55.153Z,1.60
2018-09-24T21:05:29.062Z,1.57
2018-09-24T21:08:02.718Z,1.93
2018-09-24T21:10:36.435Z,6.93
2018-09-24T21:13:10.130Z,2.47
2018-09-24T21:15:43.840Z,7.87
2018-09-24T21:18:17.983Z,2.50
2018-09-24T21:20:51.747Z,3.13
2018-09-24T21:23:25.450Z,2.60
2018-09-24T21:25:59.144Z,1.87
2018-09-24T21:28:32.895Z,3.13
2018-09-24T21:31:06.706Z,1.90
2018-09-24T21:33:40.390Z,1.60
2018-09-24T21:36:14.218Z,1.97
2018-09-24T21:38:48.147Z,3.40
2018-09-24T21:41:21.860Z,1.73
2018-09-24T21:43:55.679Z,2.00
2018-09-24T21:46:29.593Z,1.70
2018-09-24T21:49:03.529Z,1.90
2018-09-24T21:51:37.397Z,2.03
2018-09-24T21:54:11.296Z,1.87
2018-09-24T21:56:45.500Z,1.53
2018-09-24T21:59:19.644Z,1.80
2018-09-24T22:01:54.585Z,2.00
2018-09-24T22:04:30.900Z,2.90
2018-09-24T22:07:04.972Z,1.43
2018-09-24T22:09:39.280Z,1.63
2018-09-24T22:12:13.643Z,1.67
2018-09-24T22:14:48.428Z,1.80
2018-09-24T22:17:22.446Z,1.97
2018-09-24T22:19:56.494Z,1.37
2018-09-24T22:22:30.529Z,1.70
2018-09-24T22:25:04.896Z,1.57
2018-09-24T22:27:38.823Z,1.50
2018-09-24T22:30:12.670Z,1.90
2018-09-24T22:32:46.566Z,1.83
2018-09-24T22:35:20.574Z,1.60
2018-09-24T22:37:54.472Z,1.83
2018-09-24T22:40:28.586Z,2.13
2018-09-24T22:43:02.431Z,1.90
2018-09-24T22:45:36.733Z,2.10
2018-09-24T22:48:10.844Z,2.63
2018-09-24T22:50:44.630Z,2.40
2018-09-24T22:53:18.711Z,2.60
2018-09-24T22:55:52.628Z,2.73
2018-09-24T22:58:26.704Z,2.17
2018-09-24T23:01:00.675Z,2.40
2018-09-24T23:03:34.409Z,2.10
2018-09-24T23:06:08.482Z,2.07
2018-09-24T23:08:42.408Z,1.80
2018-09-24T23:11:16.330Z,2.30
2018-09-24T23:13:50.244Z,2.40
2018-09-24T23:16:24.215Z,2.43
2018-09-24T23:18:58.306Z,2.77
2018-09-24T23:21:32.197Z,1.77
2018-09-24T23:24:06.229Z,2.33
2018-09-24T23:26:40.168Z,2.23
2018-09-24T23:29:14.071Z,2.50
2018-09-24T23:31:47.863Z,2.20
2018-09-24T23:34:21.898Z,2.27
2018-09-24T23:36:55.847Z,2.83
2018-09-24T23:39:29.861Z,3.20
2018-09-24T23:42:03.713Z,2.60
2018-09-24T23:44:37.658Z,2.03
2018-09-24T23:47:11.825Z,3.07
2018-09-24T23:49:45.783Z,2.80
2018-09-24T23:52:19.688Z,2.93
2018-09-24T23:54:53.411Z,2.63
2018-09-24T23:57:27.179Z,3.07
